sensor_id;sensor_type;location;lat;lon;timestamp;pressure;altitude;pressure_sealevel;temperature;humidity
32456;BME280;18912;43.270;27.942;2023-04-26T00:00:34;97139.28;;;16.35;55.96
32456;BME280;18912;43.270;27.942;2023-04-26T00:02:59;97141.47;;;16.33;55.72
32456;BME280;18912;43.270;27.942;2023-04-26T00:05:24;97139.25;;;16.25;55.47
32456;BME280;18912;43.270;27.942;2023-04-26T00:07:50;97143.06;;;16.29;55.46
32456;BME280;18912;43.270;27.942;2023-04-26T00:10:15;97139.22;;;16.20;55.28
32456;BME280;18912;43.270;27.942;2023-04-26T00:12:40;97141.41;;;16.18;55.31
32456;BME280;18912;43.270;27.942;2023-04-26T00:15:07;97133.50;;;16.22;55.07
32456;BME280;18912;43.270;27.942;2023-04-26T00:17:32;97134.84;;;16.14;55.00
32456;BME280;18912;43.270;27.942;2023-04-26T00:19:58;97135.31;;;16.01;55.30
32456;BME280;18912;43.270;27.942;2023-04-26T00:22:23;97139.44;;;16.09;55.18
32456;BME280;18912;43.270;27.942;2023-04-26T00:24:49;97137.50;;;15.99;55.59
32456;BME280;18912;43.270;27.942;2023-04-26T00:27:15;97148.38;;;15.99;55.57
32456;BME280;18912;43.270;27.942;2023-04-26T00:29:40;97134.22;;;15.97;55.60
32456;BME280;18912;43.270;27.942;2023-04-26T00:32:06;97139.16;;;16.10;55.19
32456;BME280;18912;43.270;27.942;2023-04-26T00:34:34;97124.44;;;16.06;55.50
32456;BME280;18912;43.270;27.942;2023-04-26T00:37:00;97137.44;;;15.94;56.05
32456;BME280;18912;43.270;27.942;2023-04-26T00:39:25;97137.97;;;15.91;56.46
32456;BME280;18912;43.270;27.942;2023-04-26T00:41:51;97137.69;;;15.87;56.65
32456;BME280;18912;43.270;27.942;2023-04-26T00:44:16;97129.53;;;15.93;56.76
32456;BME280;18912;43.270;27.942;2023-04-26T00:46:42;97136.38;;;16.00;56.73
32456;BME280;18912;43.270;27.942;2023-04-26T00:49:07;97128.81;;;16.12;57.09
32456;BME280;18912;43.270;27.942;2023-04-26T00:51:33;97131.84;;;16.21;56.60
32456;BME280;18912;43.270;27.942;2023-04-26T00:54:00;97130.16;;;16.05;57.06
32456;BME280;18912;43.270;27.942;2023-04-26T00:56:25;97125.53;;;16.10;56.86
32456;BME280;18912;43.270;27.942;2023-04-26T00:58:51;97129.34;;;16.09;56.72
32456;BME280;18912;43.270;27.942;2023-04-26T01:01:16;97128.00;;;16.12;56.59
32456;BME280;18912;43.270;27.942;2023-04-26T01:03:42;97130.44;;;16.13;56.74
32456;BME280;18912;43.270;27.942;2023-04-26T01:06:09;97127.22;;;16.21;56.79
32456;BME280;18912;43.270;27.942;2023-04-26T01:08:35;97128.34;;;16.25;57.10
32456;BME280;18912;43.270;27.942;2023-04-26T01:11:00;97129.41;;;16.24;57.69
32456;BME280;18912;43.270;27.942;2023-04-26T01:13:25;97121.81;;;16.31;57.49
32456;BME280;18912;43.270;27.942;2023-04-26T01:15:51;97126.44;;;16.31;58.03
32456;BME280;18912;43.270;27.942;2023-04-26T01:18:17;97126.72;;;16.34;58.06
32456;BME280;18912;43.270;27.942;2023-04-26T01:20:42;97118.31;;;16.46;58.32
32456;BME280;18912;43.270;27.942;2023-04-26T01:23:08;97126.22;;;16.47;58.42
32456;BME280;18912;43.270;27.942;2023-04-26T01:25:34;97115.94;;;16.54;58.60
32456;BME280;18912;43.270;27.942;2023-04-26T01:27:59;97123.00;;;16.55;58.59
32456;BME280;18912;43.270;27.942;2023-04-26T01:30:25;97128.47;;;16.60;58.40
32456;BME280;18912;43.270;27.942;2023-04-26T01:32:50;97119.22;;;16.66;58.67
32456;BME280;18912;43.270;27.942;2023-04-26T01:35:15;97114.84;;;16.70;58.65
32456;BME280;18912;43.270;27.942;2023-04-26T01:37:41;97116.78;;;16.75;59.44
32456;BME280;18912;43.270;27.942;2023-04-26T01:40:07;97113.50;;;16.83;59.52
32456;BME280;18912;43.270;27.942;2023-04-26T01:42:33;97107.78;;;16.85;59.25
32456;BME280;18912;43.270;27.942;2023-04-26T01:44:59;97105.63;;;16.87;59.40
32456;BME280;18912;43.270;27.942;2023-04-26T01:47:24;97106.44;;;16.92;59.22
32456;BME280;18912;43.270;27.942;2023-04-26T01:49:50;97109.72;;;16.99;58.81
32456;BME280;18912;43.270;27.942;2023-04-26T01:52:15;97100.16;;;17.02;58.35
32456;BME280;18912;43.270;27.942;2023-04-26T01:54:41;97108.34;;;16.87;58.89
32456;BME280;18912;43.270;27.942;2023-04-26T01:57:06;97103.97;;;16.86;59.07
32456;BME280;18912;43.270;27.942;2023-04-26T01:59:31;97096.88;;;16.90;58.67
32456;BME280;18912;43.270;27.942;2023-04-26T02:01:57;97091.41;;;16.79;58.16
32456;BME280;18912;43.270;27.942;2023-04-26T02:04:22;97099.00;;;16.57;59.08
32456;BME280;18912;43.270;27.942;2023-04-26T02:06:48;97097.69;;;16.75;58.84
32456;BME280;18912;43.270;27.942;2023-04-26T02:09:13;97107.50;;;16.71;58.71
32456;BME280;18912;43.270;27.942;2023-04-26T02:11:39;97099.34;;;16.81;58.69
32456;BME280;18912;43.270;27.942;2023-04-26T02:14:04;97097.13;;;16.73;58.82
32456;BME280;18912;43.270;27.942;2023-04-26T02:16:29;97098.47;;;16.75;58.96
32456;BME280;18912;43.270;27.942;2023-04-26T02:18:56;97096.88;;;16.85;59.03
32456;BME280;18912;43.270;27.942;2023-04-26T02:21:23;97092.22;;;16.85;59.13
32456;BME280;18912;43.270;27.942;2023-04-26T02:23:48;97091.41;;;16.95;58.74
32456;BME280;18912;43.270;27.942;2023-04-26T02:26:14;97100.97;;;16.92;58.77
32456;BME280;18912;43.270;27.942;2023-04-26T02:28:39;97097.97;;;16.94;58.34
32456;BME280;18912;43.270;27.942;2023-04-26T02:31:05;97106.72;;;16.96;58.09
32456;BME280;18912;43.270;27.942;2023-04-26T02:33:31;97107.00;;;16.94;58.19
32456;BME280;18912;43.270;27.942;2023-04-26T02:35:56;97106.38;;;16.72;58.29
32456;BME280;18912;43.270;27.942;2023-04-26T02:38:22;97114.31;;;16.68;58.04
32456;BME280;18912;43.270;27.942;2023-04-26T02:40:56;97116.47;;;16.66;58.13
32456;BME280;18912;43.270;27.942;2023-04-26T02:43:21;97108.06;;;16.73;57.75
32456;BME280;18912;43.270;27.942;2023-04-26T02:45:46;97101.75;;;16.67;57.68
32456;BME280;18912;43.270;27.942;2023-04-26T02:48:12;97106.38;;;16.72;57.77
32456;BME280;18912;43.270;27.942;2023-04-26T02:50:37;97105.31;;;16.83;57.65
32456;BME280;18912;43.270;27.942;2023-04-26T02:53:02;97098.75;;;16.69;57.23
32456;BME280;18912;43.270;27.942;2023-04-26T02:55:28;97103.09;;;16.55;58.05
32456;BME280;18912;43.270;27.942;2023-04-26T02:57:53;97100.13;;;16.71;58.35
32456;BME280;18912;43.270;27.942;2023-04-26T03:00:19;97099.84;;;16.83;58.41
32456;BME280;18912;43.270;27.942;2023-04-26T03:02:44;97090.84;;;16.93;58.35
32456;BME280;18912;43.270;27.942;2023-04-26T03:05:09;97103.97;;;16.91;58.31
32456;BME280;18912;43.270;27.942;2023-04-26T03:07:35;97094.97;;;16.95;58.26
32456;BME280;18912;43.270;27.942;2023-04-26T03:10:00;97089.25;;;17.02;58.34
32456;BME280;18912;43.270;27.942;2023-04-26T03:12:26;97088.69;;;16.95;58.15
32456;BME280;18912;43.270;27.942;2023-04-26T03:14:51;97096.34;;;16.98;57.49
32456;BME280;18912;43.270;27.942;2023-04-26T03:17:16;97090.06;;;16.92;57.29
32456;BME280;18912;43.270;27.942;2023-04-26T03:19:42;97094.16;;;16.85;57.47
32456;BME280;18912;43.270;27.942;2023-04-26T03:22:07;97095.78;;;16.86;57.37
32456;BME280;18912;43.270;27.942;2023-04-26T03:24:32;97096.31;;;16.83;57.16
32456;BME280;18912;43.270;27.942;2023-04-26T03:26:58;97088.94;;;16.78;57.14
32456;BME280;18912;43.270;27.942;2023-04-26T03:29:24;97093.03;;;16.70;57.31
32456;BME280;18912;43.270;27.942;2023-04-26T03:31:49;97094.13;;;16.79;57.36
32456;BME280;18912;43.270;27.942;2023-04-26T03:34:15;97092.78;;;16.87;57.43
32456;BME280;18912;43.270;27.942;2023-04-26T03:36:40;97094.69;;;16.92;57.44
32456;BME280;18912;43.270;27.942;2023-04-26T03:39:05;97096.31;;;16.93;57.32
32456;BME280;18912;43.270;27.942;2023-04-26T03:41:31;97097.97;;;16.89;57.17
32456;BME280;18912;43.270;27.942;2023-04-26T03:43:57;97098.81;;;16.94;56.98
32456;BME280;18912;43.270;27.942;2023-04-26T03:46:22;97098.25;;;16.92;57.03
32456;BME280;18912;43.270;27.942;2023-04-26T03:48:48;97102.88;;;16.97;56.91
32456;BME280;18912;43.270;27.942;2023-04-26T03:51:13;97106.44;;;16.92;57.26
32456;BME280;18912;43.270;27.942;2023-04-26T03:53:39;97098.50;;;17.01;57.50
32456;BME280;18912;43.270;27.942;2023-04-26T03:56:04;97090.63;;;17.09;57.30
32456;BME280;18912;43.270;27.942;2023-04-26T03:58:30;97096.59;;;17.21;57.12
32456;BME280;18912;43.270;27.942;2023-04-26T04:00:55;97100.16;;;17.27;57.67
32456;BME280;18912;43.270;27.942;2023-04-26T04:03:22;97095.78;;;17.36;57.57
32456;BME280;18912;43.270;27.942;2023-04-26T04:05:47;97098.50;;;17.46;57.70
32456;BME280;18912;43.270;27.942;2023-04-26T04:08:12;97100.16;;;17.47;58.03
32456;BME280;18912;43.270;27.942;2023-04-26T04:10:38;97105.06;;;17.35;58.81
32456;BME280;18912;43.270;27.942;2023-04-26T04:13:03;97107.81;;;17.50;58.80
32456;BME280;18912;43.270;27.942;2023-04-26T04:15:28;97101.25;;;17.56;58.66
32456;BME280;18912;43.270;27.942;2023-04-26T04:17:54;97108.88;;;17.74;58.57
32456;BME280;18912;43.270;27.942;2023-04-26T04:20:19;97114.34;;;17.74;58.65
32456;BME280;18912;43.270;27.942;2023-04-26T04:22:45;97114.34;;;17.79;58.67
32456;BME280;18912;43.270;27.942;2023-04-26T04:25:11;97113.19;;;17.95;58.49
32456;BME280;18912;43.270;27.942;2023-04-26T04:27:37;97112.00;;;18.16;58.07
32456;BME280;18912;43.270;27.942;2023-04-26T04:30:03;97112.56;;;18.23;58.09
32456;BME280;18912;43.270;27.942;2023-04-26T04:32:31;97116.34;;;18.32;58.36
32456;BME280;18912;43.270;27.942;2023-04-26T04:34:57;97113.31;;;18.44;58.15
32456;BME280;18912;43.270;27.942;2023-04-26T04:37:22;97117.91;;;18.53;58.00
32456;BME280;18912;43.270;27.942;2023-04-26T04:39:49;97117.28;;;18.67;57.99
32456;BME280;18912;43.270;27.942;2023-04-26T04:42:14;97113.59;;;18.91;58.03
32456;BME280;18912;43.270;27.942;2023-04-26T04:44:40;97113.75;;;19.05;57.62
32456;BME280;18912;43.270;27.942;2023-04-26T04:47:06;97111.38;;;19.27;57.42
32456;BME280;18912;43.270;27.942;2023-04-26T04:49:31;97119.50;;;19.42;57.30
32456;BME280;18912;43.270;27.942;2023-04-26T04:51:56;97130.34;;;19.57;57.15
32456;BME280;18912;43.270;27.942;2023-04-26T04:54:22;97118.66;;;19.75;56.82
32456;BME280;18912;43.270;27.942;2023-04-26T04:56:47;97121.25;;;19.90;56.60
32456;BME280;18912;43.270;27.942;2023-04-26T04:59:12;97114.47;;;20.06;56.58
32456;BME280;18912;43.270;27.942;2023-04-26T05:01:38;97115.00;;;20.08;56.34
32456;BME280;18912;43.270;27.942;2023-04-26T05:04:03;97113.69;;;20.29;56.22
32456;BME280;18912;43.270;27.942;2023-04-26T05:06:29;97117.94;;;20.40;55.60
32456;BME280;18912;43.270;27.942;2023-04-26T05:08:56;97119.97;;;20.54;55.30
32456;BME280;18912;43.270;27.942;2023-04-26T05:11:21;97126.38;;;20.68;55.29
32456;BME280;18912;43.270;27.942;2023-04-26T05:13:47;97124.97;;;20.89;54.79
32456;BME280;18912;43.270;27.942;2023-04-26T05:16:13;97118.53;;;20.98;54.51
32456;BME280;18912;43.270;27.942;2023-04-26T05:18:38;97125.09;;;21.02;54.01
32456;BME280;18912;43.270;27.942;2023-04-26T05:21:03;97134.97;;;21.03;54.02
32456;BME280;18912;43.270;27.942;2023-04-26T05:23:29;97132.16;;;21.08;53.63
32456;BME280;18912;43.270;27.942;2023-04-26T05:25:55;97128.72;;;20.56;53.42
32456;BME280;18912;43.270;27.942;2023-04-26T05:28:20;97127.41;;;20.53;52.14
32456;BME280;18912;43.270;27.942;2023-04-26T05:30:45;97124.38;;;20.73;52.15
32456;BME280;18912;43.270;27.942;2023-04-26T05:33:11;97127.81;;;20.41;52.28
32456;BME280;18912;43.270;27.942;2023-04-26T05:35:36;97137.34;;;20.68;52.01
32456;BME280;18912;43.270;27.942;2023-04-26T05:38:02;97128.50;;;20.52;51.97
32456;BME280;18912;43.270;27.942;2023-04-26T05:40:27;97135.34;;;20.73;51.28
32456;BME280;18912;43.270;27.942;2023-04-26T05:42:53;97137.44;;;20.63;51.34
32456;BME280;18912;43.270;27.942;2023-04-26T05:45:18;97143.78;;;20.11;51.12
32456;BME280;18912;43.270;27.942;2023-04-26T05:47:43;97144.06;;;20.38;50.92
32456;BME280;18912;43.270;27.942;2023-04-26T05:50:11;97137.41;;;20.20;51.58
32456;BME280;18912;43.270;27.942;2023-04-26T05:52:36;97138.84;;;19.84;52.13
32456;BME280;18912;43.270;27.942;2023-04-26T05:55:02;97143.06;;;20.00;51.75
32456;BME280;18912;43.270;27.942;2023-04-26T05:57:28;97145.47;;;20.35;51.19
32456;BME280;18912;43.270;27.942;2023-04-26T05:59:54;97146.69;;;20.24;51.79
32456;BME280;18912;43.270;27.942;2023-04-26T06:02:19;97151.03;;;20.02;52.16
32456;BME280;18912;43.270;27.942;2023-04-26T06:04:44;97156.38;;;19.88;52.17
32456;BME280;18912;43.270;27.942;2023-04-26T06:07:10;97152.88;;;20.06;51.89
32456;BME280;18912;43.270;27.942;2023-04-26T06:09:35;97147.69;;;19.76;52.11
32456;BME280;18912;43.270;27.942;2023-04-26T06:12:01;97156.78;;;19.43;52.61
32456;BME280;18912;43.270;27.942;2023-04-26T06:14:27;97150.66;;;19.51;52.39
32456;BME280;18912;43.270;27.942;2023-04-26T06:16:53;97155.00;;;19.57;52.54
32456;BME280;18912;43.270;27.942;2023-04-26T06:19:18;97153.59;;;19.26;53.37
32456;BME280;18912;43.270;27.942;2023-04-26T06:21:43;97159.78;;;19.75;52.44
32456;BME280;18912;43.270;27.942;2023-04-26T06:24:09;97160.88;;;19.74;52.55
32456;BME280;18912;43.270;27.942;2023-04-26T06:26:34;97161.59;;;19.17;53.81
32456;BME280;18912;43.270;27.942;2023-04-26T06:28:59;97163.50;;;19.22;53.60
32456;BME280;18912;43.270;27.942;2023-04-26T06:31:25;97162.28;;;19.43;52.98
32456;BME280;18912;43.270;27.942;2023-04-26T06:33:50;97167.69;;;19.48;53.23
32456;BME280;18912;43.270;27.942;2023-04-26T06:36:16;97158.47;;;18.90;54.44
32456;BME280;18912;43.270;27.942;2023-04-26T06:38:41;97162.94;;;19.20;54.47
32456;BME280;18912;43.270;27.942;2023-04-26T06:41:06;97162.41;;;19.18;54.20
32456;BME280;18912;43.270;27.942;2023-04-26T06:43:32;97161.47;;;19.71;53.46
32456;BME280;18912;43.270;27.942;2023-04-26T06:45:57;97169.16;;;19.69;54.29
32456;BME280;18912;43.270;27.942;2023-04-26T06:48:23;97160.72;;;19.61;54.43
32456;BME280;18912;43.270;27.942;2023-04-26T06:50:48;97173.94;;;19.15;55.88
32456;BME280;18912;43.270;27.942;2023-04-26T06:53:13;97169.00;;;19.55;55.19
32456;BME280;18912;43.270;27.942;2023-04-26T06:55:39;97178.66;;;19.48;55.51
32456;BME280;18912;43.270;27.942;2023-04-26T06:58:04;97176.88;;;19.33;54.99
32456;BME280;18912;43.270;27.942;2023-04-26T07:00:30;97177.44;;;19.25;55.17
32456;BME280;18912;43.270;27.942;2023-04-26T07:02:55;97167.16;;;19.46;54.42
32456;BME280;18912;43.270;27.942;2023-04-26T07:05:21;97177.75;;;19.19;54.90
32456;BME280;18912;43.270;27.942;2023-04-26T07:07:47;97172.25;;;19.24;55.13
32456;BME280;18912;43.270;27.942;2023-04-26T07:10:14;97179.53;;;18.95;56.07
32456;BME280;18912;43.270;27.942;2023-04-26T07:12:39;97179.34;;;19.25;56.20
32456;BME280;18912;43.270;27.942;2023-04-26T07:15:04;97173.88;;;19.25;55.62
32456;BME280;18912;43.270;27.942;2023-04-26T07:17:31;97176.38;;;19.60;55.48
32456;BME280;18912;43.270;27.942;2023-04-26T07:19:56;97178.41;;;19.44;55.44
32456;BME280;18912;43.270;27.942;2023-04-26T07:22:22;97178.34;;;19.83;54.65
32456;BME280;18912;43.270;27.942;2023-04-26T07:24:47;97178.34;;;19.83;55.42
32456;BME280;18912;43.270;27.942;2023-04-26T07:27:13;97176.69;;;19.53;55.63
32456;BME280;18912;43.270;27.942;2023-04-26T07:29:38;97173.28;;;19.95;55.07
32456;BME280;18912;43.270;27.942;2023-04-26T07:32:03;97176.88;;;20.24;54.53
32456;BME280;18912;43.270;27.942;2023-04-26T07:34:29;97185.31;;;20.52;54.12
32456;BME280;18912;43.270;27.942;2023-04-26T07:36:54;97180.13;;;20.74;53.52
32456;BME280;18912;43.270;27.942;2023-04-26T07:39:20;97177.03;;;20.33;54.02
32456;BME280;18912;43.270;27.942;2023-04-26T07:41:46;97185.44;;;20.65;52.99
32456;BME280;18912;43.270;27.942;2023-04-26T07:44:11;97179.69;;;20.43;53.67
32456;BME280;18912;43.270;27.942;2023-04-26T07:46:36;97187.31;;;20.46;53.07
32456;BME280;18912;43.270;27.942;2023-04-26T07:49:01;97186.44;;;20.51;52.51
32456;BME280;18912;43.270;27.942;2023-04-26T07:51:27;97178.91;;;21.03;52.29
32456;BME280;18912;43.270;27.942;2023-04-26T07:53:53;97173.09;;;21.61;51.56
32456;BME280;18912;43.270;27.942;2023-04-26T07:56:20;97171.50;;;20.80;51.69
32456;BME280;18912;43.270;27.942;2023-04-26T07:58:45;97184.94;;;21.24;50.47
32456;BME280;18912;43.270;27.942;2023-04-26T08:01:11;97181.50;;;21.69;50.19
32456;BME280;18912;43.270;27.942;2023-04-26T08:03:36;97185.16;;;21.09;51.17
32456;BME280;18912;43.270;27.942;2023-04-26T08:06:02;97176.47;;;21.02;50.09
32456;BME280;18912;43.270;27.942;2023-04-26T08:08:27;97186.94;;;21.56;49.51
32456;BME280;18912;43.270;27.942;2023-04-26T08:10:53;97175.34;;;22.50;48.99
32456;BME280;18912;43.270;27.942;2023-04-26T08:13:19;97172.88;;;22.76;47.20
32456;BME280;18912;43.270;27.942;2023-04-26T08:15:45;97175.00;;;22.24;47.02
32456;BME280;18912;43.270;27.942;2023-04-26T08:18:10;97175.69;;;21.71;46.38
32456;BME280;18912;43.270;27.942;2023-04-26T08:20:36;97173.84;;;21.48;47.13
32456;BME280;18912;43.270;27.942;2023-04-26T08:23:01;97181.97;;;21.71;46.84
32456;BME280;18912;43.270;27.942;2023-04-26T08:25:27;97177.44;;;21.11;47.97
32456;BME280;18912;43.270;27.942;2023-04-26T08:27:52;97178.75;;;22.15;46.24
32456;BME280;18912;43.270;27.942;2023-04-26T08:30:18;97176.28;;;21.86;47.07
32456;BME280;18912;43.270;27.942;2023-04-26T08:32:43;97176.34;;;22.41;46.38
32456;BME280;18912;43.270;27.942;2023-04-26T08:35:09;97180.06;;;22.04;46.75
32456;BME280;18912;43.270;27.942;2023-04-26T08:37:35;97181.50;;;22.15;46.19
32456;BME280;18912;43.270;27.942;2023-04-26T08:40:02;97181.88;;;21.95;46.96
32456;BME280;18912;43.270;27.942;2023-04-26T08:42:27;97172.09;;;22.62;46.79
32456;BME280;18912;43.270;27.942;2023-04-26T08:44:53;97175.31;;;22.37;46.58
32456;BME280;18912;43.270;27.942;2023-04-26T08:47:22;97177.28;;;21.90;46.55
32456;BME280;18912;43.270;27.942;2023-04-26T08:49:53;97190.06;;;22.13;47.57
32456;BME280;18912;43.270;27.942;2023-04-26T08:52:26;97178.41;;;22.49;46.85
32456;BME280;18912;43.270;27.942;2023-04-26T08:54:52;97179.09;;;22.27;47.77
32456;BME280;18912;43.270;27.942;2023-04-26T08:57:18;97183.25;;;22.24;46.56
32456;BME280;18912;43.270;27.942;2023-04-26T08:59:45;97183.56;;;22.23;47.13
32456;BME280;18912;43.270;27.942;2023-04-26T09:02:11;97176.25;;;21.68;47.69
32456;BME280;18912;43.270;27.942;2023-04-26T09:04:38;97179.97;;;21.95;47.73
32456;BME280;18912;43.270;27.942;2023-04-26T09:07:04;97180.44;;;21.84;47.01
32456;BME280;18912;43.270;27.942;2023-04-26T09:09:34;97186.25;;;21.45;47.81
32456;BME280;18912;43.270;27.942;2023-04-26T09:12:02;97184.03;;;21.98;47.66
32456;BME280;18912;43.270;27.942;2023-04-26T09:14:27;97185.25;;;22.05;46.99
32456;BME280;18912;43.270;27.942;2023-04-26T09:16:53;97187.25;;;22.18;47.03
32456;BME280;18912;43.270;27.942;2023-04-26T09:19:37;97184.09;;;22.39;46.14
32456;BME280;18912;43.270;27.942;2023-04-26T09:22:03;97182.84;;;22.17;44.95
32456;BME280;18912;43.270;27.942;2023-04-26T09:24:33;97189.63;;;21.93;45.70
32456;BME280;18912;43.270;27.942;2023-04-26T09:27:10;97188.00;;;21.92;45.28
32456;BME280;18912;43.270;27.942;2023-04-26T09:29:36;97183.28;;;21.92;45.47
32456;BME280;18912;43.270;27.942;2023-04-26T09:32:01;97184.47;;;22.32;45.12
32456;BME280;18912;43.270;27.942;2023-04-26T09:34:27;97187.00;;;22.01;45.68
32456;BME280;18912;43.270;27.942;2023-04-26T09:36:54;97192.25;;;22.44;46.63
32456;BME280;18912;43.270;27.942;2023-04-26T09:39:38;97188.56;;;22.35;45.55
32456;BME280;18912;43.270;27.942;2023-04-26T09:42:04;97185.50;;;22.22;45.23
32456;BME280;18912;43.270;27.942;2023-04-26T09:44:30;97185.16;;;22.70;45.08
32456;BME280;18912;43.270;27.942;2023-04-26T09:46:56;97180.00;;;22.50;46.21
32456;BME280;18912;43.270;27.942;2023-04-26T09:49:23;97182.19;;;22.66;46.98
32456;BME280;18912;43.270;27.942;2023-04-26T09:52:03;97184.03;;;21.98;48.67
32456;BME280;18912;43.270;27.942;2023-04-26T09:54:38;97175.19;;;22.01;50.16
32456;BME280;18912;43.270;27.942;2023-04-26T09:57:03;97172.97;;;22.16;50.35
32456;BME280;18912;43.270;27.942;2023-04-26T09:59:42;97180.63;;;22.47;49.52
32456;BME280;18912;43.270;27.942;2023-04-26T10:04:40;97173.91;;;22.39;49.86
32456;BME280;18912;43.270;27.942;2023-04-26T10:07:08;97176.22;;;22.05;51.00
32456;BME280;18912;43.270;27.942;2023-04-26T10:09:33;97162.50;;;22.73;50.00
32456;BME280;18912;43.270;27.942;2023-04-26T10:11:59;97178.81;;;22.83;49.78
32456;BME280;18912;43.270;27.942;2023-04-26T10:14:25;97172.88;;;22.89;48.59
32456;BME280;18912;43.270;27.942;2023-04-26T10:16:51;97175.75;;;22.71;48.94
32456;BME280;18912;43.270;27.942;2023-04-26T10:19:19;97175.25;;;22.69;48.95
32456;BME280;18912;43.270;27.942;2023-04-26T10:21:45;97174.81;;;22.35;48.92
32456;BME280;18912;43.270;27.942;2023-04-26T10:24:11;97171.72;;;21.77;50.93
32456;BME280;18912;43.270;27.942;2023-04-26T10:26:49;97169.88;;;21.72;51.63
32456;BME280;18912;43.270;27.942;2023-04-26T10:29:16;97167.09;;;21.91;50.96
32456;BME280;18912;43.270;27.942;2023-04-26T10:34:32;97173.72;;;22.36;49.39
32456;BME280;18912;43.270;27.942;2023-04-26T10:37:16;97166.00;;;21.92;49.03
32456;BME280;18912;43.270;27.942;2023-04-26T10:39:43;97166.88;;;22.33;47.57
32456;BME280;18912;43.270;27.942;2023-04-26T10:42:25;97156.88;;;22.51;47.99
32456;BME280;18912;43.270;27.942;2023-04-26T10:45:22;97158.13;;;22.72;47.52
32456;BME280;18912;43.270;27.942;2023-04-26T10:47:46;97169.25;;;23.16;47.21
32456;BME280;18912;43.270;27.942;2023-04-26T10:50:11;97168.84;;;23.58;46.90
32456;BME280;18912;43.270;27.942;2023-04-26T10:55:38;97160.63;;;23.45;46.01
32456;BME280;18912;43.270;27.942;2023-04-26T10:58:24;97164.13;;;23.37;44.84
32456;BME280;18912;43.270;27.942;2023-04-26T11:01:03;97161.94;;;23.69;45.09
32456;BME280;18912;43.270;27.942;2023-04-26T11:03:28;97163.78;;;24.27;45.30
32456;BME280;18912;43.270;27.942;2023-04-26T11:05:55;97161.16;;;24.22;44.74
32456;BME280;18912;43.270;27.942;2023-04-26T11:13:29;97163.50;;;23.26;46.48
32456;BME280;18912;43.270;27.942;2023-04-26T11:16:01;97163.69;;;23.65;45.14
32456;BME280;18912;43.270;27.942;2023-04-26T11:18:28;97156.09;;;23.13;46.55
32456;BME280;18912;43.270;27.942;2023-04-26T11:20:53;97164.56;;;23.52;45.96
32456;BME280;18912;43.270;27.942;2023-04-26T11:23:19;97165.84;;;23.68;44.90
32456;BME280;18912;43.270;27.942;2023-04-26T11:25:44;97172.53;;;23.98;46.50
32456;BME280;18912;43.270;27.942;2023-04-26T11:28:10;97162.66;;;24.28;46.05
32456;BME280;18912;43.270;27.942;2023-04-26T11:30:35;97164.81;;;23.86;46.15
32456;BME280;18912;43.270;27.942;2023-04-26T11:33:01;97156.84;;;23.85;44.82
32456;BME280;18912;43.270;27.942;2023-04-26T11:35:28;97155.13;;;23.67;43.51
32456;BME280;18912;43.270;27.942;2023-04-26T11:37:57;97170.38;;;24.48;43.88
32456;BME280;18912;43.270;27.942;2023-04-26T11:40:22;97171.22;;;24.57;44.14
32456;BME280;18912;43.270;27.942;2023-04-26T11:42:47;97161.50;;;24.29;42.97
32456;BME280;18912;43.270;27.942;2023-04-26T11:45:16;97160.59;;;24.42;42.96
32456;BME280;18912;43.270;27.942;2023-04-26T11:47:41;97165.69;;;23.95;43.83
32456;BME280;18912;43.270;27.942;2023-04-26T11:50:07;97161.38;;;24.34;42.58
32456;BME280;18912;43.270;27.942;2023-04-26T11:52:34;97161.31;;;24.56;42.43
32456;BME280;18912;43.270;27.942;2023-04-26T11:55:02;97160.53;;;23.80;41.58
32456;BME280;18912;43.270;27.942;2023-04-26T11:57:29;97159.94;;;23.39;42.63
32456;BME280;18912;43.270;27.942;2023-04-26T12:00:05;97159.53;;;22.96;43.38
32456;BME280;18912;43.270;27.942;2023-04-26T12:02:34;97155.38;;;22.72;45.13
32456;BME280;18912;43.270;27.942;2023-04-26T12:04:59;97163.53;;;23.12;44.24
32456;BME280;18912;43.270;27.942;2023-04-26T12:07:24;97154.25;;;23.80;42.87
32456;BME280;18912;43.270;27.942;2023-04-26T12:09:50;97162.19;;;23.23;42.08
32456;BME280;18912;43.270;27.942;2023-04-26T12:12:15;97162.63;;;23.17;41.93
32456;BME280;18912;43.270;27.942;2023-04-26T12:14:40;97152.16;;;22.92;42.01
32456;BME280;18912;43.270;27.942;2023-04-26T12:17:06;97158.50;;;23.28;41.89
32456;BME280;18912;43.270;27.942;2023-04-26T12:19:32;97150.91;;;23.47;41.45
32456;BME280;18912;43.270;27.942;2023-04-26T12:21:57;97153.66;;;23.91;40.76
32456;BME280;18912;43.270;27.942;2023-04-26T12:24:23;97152.00;;;23.90;39.74
32456;BME280;18912;43.270;27.942;2023-04-26T12:26:49;97152.88;;;23.99;38.69
32456;BME280;18912;43.270;27.942;2023-04-26T12:29:14;97151.66;;;23.83;39.28
32456;BME280;18912;43.270;27.942;2023-04-26T12:31:39;97151.72;;;23.70;39.34
32456;BME280;18912;43.270;27.942;2023-04-26T12:34:05;97153.28;;;23.62;39.44
32456;BME280;18912;43.270;27.942;2023-04-26T12:36:32;97147.16;;;23.43;38.19
32456;BME280;18912;43.270;27.942;2023-04-26T12:38:57;97146.53;;;22.97;39.34
32456;BME280;18912;43.270;27.942;2023-04-26T12:41:22;97139.81;;;23.61;38.85
32456;BME280;18912;43.270;27.942;2023-04-26T12:43:48;97142.03;;;23.01;37.39
32456;BME280;18912;43.270;27.942;2023-04-26T12:46:13;97155.94;;;23.45;36.38
32456;BME280;18912;43.270;27.942;2023-04-26T12:48:39;97154.72;;;23.60;35.77
32456;BME280;18912;43.270;27.942;2023-04-26T12:51:04;97156.44;;;22.44;47.55
32456;BME280;18912;43.270;27.942;2023-04-26T12:53:30;97149.16;;;21.61;50.05
32456;BME280;18912;43.270;27.942;2023-04-26T12:55:56;97153.88;;;21.42;51.69
32456;BME280;18912;43.270;27.942;2023-04-26T12:58:21;97150.34;;;21.23;52.58